createdAt,value
2018-12-30T00:00:33.714Z,3.90
2018-12-30T00:03:03.327Z,2.73
2018-12-30T00:05:33.056Z,6.10
2018-12-30T00:08:02.347Z,4.10
2018-12-30T00:10:31.761Z,3.47
2018-12-30T00:13:01.094Z,4.43
2018-12-30T00:15:30.905Z,4.13
2018-12-30T00:18:00.206Z,5.00
2018-12-30T00:20:30.716Z,1.73
2018-12-30T00:23:00.152Z,4.83
2018-12-30T00:25:29.440Z,4.17
2018-12-30T00:27:58.744Z,2.07
2018-12-30T00:30:28.129Z,4.03
2018-12-30T00:32:57.381Z,2.20
2018-12-30T00:35:26.685Z,3.70
2018-12-30T00:37:56.028Z,1.60
2018-12-30T00:40:25.708Z,3.70
2018-12-30T00:42:55.011Z,2.90
2018-12-30T00:45:24.307Z,1.90
2018-12-30T00:47:53.647Z,2.87
2018-12-30T00:50:23.085Z,2.17
2018-12-30T00:52:53.754Z,1.27
2018-12-30T00:55:22.997Z,1.60
2018-12-30T00:57:52.274Z,2.80
2018-12-30T01:00:22.628Z,1.10
2018-12-30T01:02:51.926Z,1.20
2018-12-30T01:05:21.562Z,2.20
2018-12-30T01:07:51.098Z,1.67
2018-12-30T01:10:20.357Z,1.47
2018-12-30T01:12:49.698Z,1.30
2018-12-30T01:15:18.971Z,1.37
2018-12-30T01:17:48.257Z,1.57
2018-12-30T01:20:17.567Z,2.83
2018-12-30T01:22:46.826Z,4.30
2018-12-30T01:25:16.176Z,3.30
2018-12-30T01:27:45.441Z,2.80
2018-12-30T01:30:14.758Z,3.27
2018-12-30T01:32:44.367Z,2.50
2018-12-30T01:35:13.622Z,3.20
2018-12-30T01:37:42.978Z,4.70
2018-12-30T01:40:12.236Z,5.37
2018-12-30T01:42:41.600Z,4.67
2018-12-30T01:45:11.348Z,5.03
2018-12-30T01:47:40.612Z,5.00
2018-12-30T01:50:09.911Z,5.50
2018-12-30T01:52:39.195Z,4.83
2018-12-30T01:55:08.509Z,6.10
2018-12-30T01:57:38.063Z,4.43
2018-12-30T02:00:07.347Z,6.20
2018-12-30T02:02:36.669Z,5.23
2018-12-30T02:05:06.034Z,8.63
2018-12-30T02:07:35.300Z,8.87
2018-12-30T02:10:06.262Z,11.60
2018-12-30T02:12:35.510Z,18.10
2018-12-30T02:15:04.982Z,17.57
2018-12-30T02:17:34.247Z,16.73
2018-12-30T02:20:03.522Z,15.03
2018-12-30T02:22:33.302Z,12.97
2018-12-30T02:25:02.777Z,11.87
2018-12-30T02:27:32.049Z,10.80
2018-12-30T02:30:01.426Z,9.30
2018-12-30T02:32:30.813Z,7.40
2018-12-30T02:35:00.302Z,10.43
2018-12-30T02:37:29.635Z,9.03
2018-12-30T02:39:58.978Z,5.33
2018-12-30T02:42:28.357Z,7.50
2018-12-30T02:44:57.618Z,4.93
2018-12-30T02:47:26.921Z,8.90
2018-12-30T02:49:56.215Z,4.73
2018-12-30T02:52:25.588Z,4.60
2018-12-30T02:54:54.915Z,6.07
2018-12-30T02:57:24.330Z,6.93
2018-12-30T02:59:53.598Z,7.03
2018-12-30T03:02:23.031Z,7.13
2018-12-30T03:04:52.325Z,7.73
2018-12-30T03:07:21.688Z,7.40
2018-12-30T03:09:51.378Z,7.60
2018-12-30T03:12:20.765Z,10.67
2018-12-30T03:14:50.045Z,7.77
2018-12-30T03:17:19.307Z,9.10
2018-12-30T03:19:48.622Z,5.97
2018-12-30T03:22:17.924Z,8.20
2018-12-30T03:24:47.193Z,6.43
2018-12-30T03:27:16.478Z,7.47
2018-12-30T03:29:45.748Z,6.07
2018-12-30T03:32:15.036Z,11.60
2018-12-30T03:34:44.337Z,7.47
2018-12-30T03:37:13.626Z,9.10
2018-12-30T03:39:42.875Z,5.43
2018-12-30T03:42:12.159Z,7.83
2018-12-30T03:44:41.421Z,5.40
2018-12-30T03:47:10.675Z,4.57
2018-12-30T03:49:39.966Z,3.87
2018-12-30T03:52:09.228Z,2.97
2018-12-30T03:54:38.594Z,3.07
2018-12-30T03:57:07.938Z,1.37
2018-12-30T03:59:37.309Z,2.33
2018-12-30T04:02:06.558Z,2.00
2018-12-30T04:04:35.814Z,2.97
2018-12-30T04:07:05.237Z,3.70
2018-12-30T04:09:34.545Z,2.97
2018-12-30T04:12:03.872Z,4.37
2018-12-30T04:14:33.158Z,3.07
2018-12-30T04:17:02.487Z,2.63
2018-12-30T04:19:31.785Z,0.93
2018-12-30T04:22:01.041Z,2.73
2018-12-30T04:24:30.341Z,2.00
2018-12-30T04:26:59.595Z,3.03
2018-12-30T04:29:30.053Z,4.10
2018-12-30T04:31:59.409Z,1.97
2018-12-30T04:34:28.683Z,5.03
2018-12-30T04:36:58.031Z,5.17
2018-12-30T04:39:27.297Z,2.20
2018-12-30T04:41:56.606Z,3.23
2018-12-30T04:44:25.878Z,5.77
2018-12-30T04:46:55.259Z,4.20
2018-12-30T04:49:24.536Z,4.87
2018-12-30T04:51:53.822Z,7.57
2018-12-30T04:54:23.011Z,3.27
2018-12-30T04:56:52.296Z,6.93
2018-12-30T04:59:21.533Z,7.37
2018-12-30T05:01:50.718Z,5.23
2018-12-30T05:04:20.123Z,6.93
2018-12-30T05:06:49.398Z,5.53
2018-12-30T05:09:18.884Z,8.83
2018-12-30T05:11:48.122Z,6.70
2018-12-30T05:14:17.429Z,5.57
2018-12-30T05:16:46.760Z,6.33
2018-12-30T05:19:16.139Z,8.27
2018-12-30T05:21:45.431Z,9.50
2018-12-30T05:24:14.805Z,9.37
2018-12-30T05:26:44.074Z,7.77
2018-12-30T05:29:13.336Z,10.00
2018-12-30T05:31:42.623Z,13.13
2018-12-30T05:34:11.887Z,12.07
2018-12-30T05:36:41.154Z,12.43
2018-12-30T05:39:10.412Z,12.60
2018-12-30T05:41:39.725Z,12.47
2018-12-30T05:44:08.978Z,9.40
2018-12-30T05:46:38.666Z,18.50
2018-12-30T05:49:07.977Z,19.80
2018-12-30T05:51:37.331Z,14.10
2018-12-30T05:54:06.614Z,14.87
2018-12-30T05:56:36.065Z,12.43
2018-12-30T05:59:05.395Z,14.97
2018-12-30T06:01:34.735Z,15.83
2018-12-30T06:04:03.993Z,15.33
2018-12-30T06:06:33.310Z,19.67
2018-12-30T06:09:02.657Z,23.37
2018-12-30T06:11:33.423Z,12.57
2018-12-30T06:14:02.699Z,18.47
2018-12-30T06:16:32.021Z,16.07
2018-12-30T06:19:01.407Z,22.33
2018-12-30T06:21:30.638Z,22.50
2018-12-30T06:23:59.922Z,24.17
2018-12-30T06:26:29.214Z,20.23
2018-12-30T06:28:58.570Z,17.00
2018-12-30T06:31:27.935Z,23.90
2018-12-30T06:33:57.301Z,28.87
2018-12-30T06:36:26.625Z,19.70
2018-12-30T06:38:55.906Z,21.63
2018-12-30T06:41:25.145Z,26.10
2018-12-30T06:43:54.438Z,22.67
2018-12-30T06:46:23.717Z,24.37
2018-12-30T06:48:52.998Z,33.37
2018-12-30T06:51:22.280Z,21.23
2018-12-30T06:53:51.547Z,21.63
2018-12-30T06:56:20.843Z,33.43
2018-12-30T06:58:50.129Z,22.83
2018-12-30T07:01:19.532Z,18.40
2018-12-30T07:03:48.739Z,20.57
2018-12-30T07:06:18.054Z,21.20
2018-12-30T07:08:47.305Z,18.10
2018-12-30T07:11:16.632Z,13.87
2018-12-30T07:13:45.994Z,19.33
2018-12-30T07:16:15.237Z,22.87
2018-12-30T07:18:44.458Z,19.40
2018-12-30T07:21:13.711Z,18.63
2018-12-30T07:23:43.084Z,14.33
2018-12-30T07:26:12.341Z,20.07
2018-12-30T07:28:41.647Z,21.83
2018-12-30T07:31:10.994Z,18.43
2018-12-30T07:33:40.361Z,17.07
2018-12-30T07:36:09.710Z,22.07
2018-12-30T07:38:39.685Z,17.30
2018-12-30T07:41:09.502Z,18.47
2018-12-30T07:43:38.933Z,20.47
2018-12-30T07:46:08.156Z,16.73
2018-12-30T07:48:37.499Z,16.47
2018-12-30T07:51:06.821Z,14.50
2018-12-30T07:53:36.171Z,23.50
2018-12-30T07:56:05.441Z,15.77
2018-12-30T07:58:34.713Z,15.97
2018-12-30T08:01:03.986Z,13.60
2018-12-30T08:03:33.350Z,13.83
2018-12-30T08:06:02.716Z,13.77
2018-12-30T08:08:32.300Z,15.50
2018-12-30T08:11:01.571Z,17.27
2018-12-30T08:13:30.849Z,22.83
2018-12-30T08:16:00.139Z,19.13
2018-12-30T08:18:29.492Z,15.00
2018-12-30T08:20:58.805Z,17.77
2018-12-30T08:23:28.065Z,17.30
2018-12-30T08:25:57.496Z,23.43
2018-12-30T08:28:26.892Z,18.80
2018-12-30T08:30:56.212Z,19.43
2018-12-30T08:33:25.619Z,14.97
2018-12-30T08:35:54.961Z,12.07
2018-12-30T08:38:24.247Z,14.87
2018-12-30T08:40:53.596Z,17.00
2018-12-30T08:43:23.017Z,18.87
2018-12-30T08:45:52.427Z,14.83
2018-12-30T08:48:21.719Z,10.77
2018-12-30T08:50:51.112Z,7.93
2018-12-30T08:53:20.365Z,9.07
2018-12-30T08:55:49.641Z,7.77
2018-12-30T08:58:18.930Z,6.57
2018-12-30T09:00:48.317Z,6.20
2018-12-30T09:03:17.666Z,10.50
2018-12-30T09:05:46.969Z,11.40
2018-12-30T09:08:16.289Z,12.00
2018-12-30T09:10:45.667Z,8.37
2018-12-30T09:13:14.995Z,6.57
2018-12-30T09:15:44.566Z,8.87
2018-12-30T09:18:13.960Z,6.37
2018-12-30T09:20:43.256Z,5.20
2018-12-30T09:23:14.457Z,9.57
2018-12-30T09:25:43.736Z,6.70
2018-12-30T09:28:13.157Z,7.77
2018-12-30T09:30:42.491Z,4.00
2018-12-30T09:33:11.780Z,9.40
2018-12-30T09:35:41.113Z,10.07
2018-12-30T09:38:10.564Z,8.87
2018-12-30T09:40:40.013Z,5.57
2018-12-30T09:43:09.405Z,8.73
2018-12-30T09:45:38.722Z,10.03
2018-12-30T09:48:08.010Z,10.53
2018-12-30T09:50:37.347Z,7.50
2018-12-30T09:53:06.647Z,4.40
2018-12-30T09:55:35.925Z,11.80
2018-12-30T09:58:05.383Z,12.93
2018-12-30T10:00:34.658Z,15.90
2018-12-30T10:03:03.950Z,9.57
2018-12-30T10:05:33.239Z,9.40
2018-12-30T10:08:02.512Z,6.53
2018-12-30T10:10:31.814Z,11.83
2018-12-30T10:13:01.985Z,12.67
2018-12-30T10:15:31.536Z,11.77
2018-12-30T10:18:00.826Z,12.33
2018-12-30T10:20:30.099Z,14.03
2018-12-30T10:22:59.385Z,9.00
2018-12-30T10:25:28.697Z,15.93
2018-12-30T10:27:57.957Z,12.10
2018-12-30T10:30:27.332Z,16.53
2018-12-30T10:32:56.598Z,9.87
2018-12-30T10:35:26.086Z,10.43
2018-12-30T10:37:55.669Z,16.93
2018-12-30T10:40:24.961Z,8.03
2018-12-30T10:42:54.241Z,10.53
2018-12-30T10:45:23.674Z,12.10
2018-12-30T10:47:53.073Z,8.93
2018-12-30T10:50:22.566Z,11.27
2018-12-30T10:52:52.209Z,22.67
2018-12-30T10:55:21.469Z,11.57
2018-12-30T10:57:50.838Z,16.33
2018-12-30T11:00:20.253Z,17.40
2018-12-30T11:02:49.638Z,14.70
2018-12-30T11:05:19.110Z,21.87
2018-12-30T11:07:48.377Z,14.83
2018-12-30T11:10:17.666Z,21.83
2018-12-30T11:12:46.942Z,16.33
2018-12-30T11:15:16.295Z,21.87
2018-12-30T11:17:45.591Z,21.00
2018-12-30T11:20:15.329Z,25.97
2018-12-30T11:22:44.584Z,19.03
2018-12-30T11:25:14.005Z,14.57
2018-12-30T11:27:43.274Z,17.83
2018-12-30T11:30:12.626Z,13.03
2018-12-30T11:32:41.904Z,9.90
2018-12-30T11:35:11.131Z,8.67
2018-12-30T11:37:40.425Z,9.30
2018-12-30T11:40:10.945Z,13.27
2018-12-30T11:42:40.261Z,13.93
2018-12-30T11:45:09.609Z,17.60
2018-12-30T11:47:38.853Z,13.83
2018-12-30T11:50:09.352Z,12.10
2018-12-30T11:52:38.642Z,15.53
2018-12-30T11:55:08.001Z,13.33
2018-12-30T11:57:37.302Z,13.10
2018-12-30T12:00:10.849Z,11.10
2018-12-30T12:02:40.127Z,10.97
2018-12-30T12:05:09.556Z,11.30
2018-12-30T12:07:38.938Z,14.23
2018-12-30T12:10:08.286Z,14.33
2018-12-30T12:12:37.548Z,13.00
2018-12-30T12:15:07.095Z,13.93
2018-12-30T12:17:36.424Z,12.97
2018-12-30T12:20:05.936Z,10.33
2018-12-30T12:22:35.295Z,14.70
2018-12-30T12:25:05.009Z,14.70
2018-12-30T12:27:34.365Z,11.00
2018-12-30T12:30:05.174Z,11.17
2018-12-30T12:32:34.472Z,16.43
2018-12-30T12:35:03.900Z,22.17
2018-12-30T12:37:33.236Z,44.37
2018-12-30T12:40:02.637Z,27.17
2018-12-30T12:42:32.007Z,18.10
2018-12-30T12:45:01.303Z,9.80
2018-12-30T12:47:30.574Z,14.63
2018-12-30T12:50:00.080Z,16.83
2018-12-30T12:52:29.413Z,13.33
2018-12-30T12:54:58.766Z,12.67
2018-12-30T12:57:28.049Z,12.27
2018-12-30T12:59:57.462Z,11.97
2018-12-30T13:02:26.765Z,13.13
2018-12-30T13:04:56.028Z,15.67
2018-12-30T13:07:28.049Z,8.70
2018-12-30T13:09:57.530Z,9.43
2018-12-30T13:12:26.906Z,7.70
2018-12-30T13:14:57.293Z,8.53
2018-12-30T13:17:26.602Z,13.13
2018-12-30T13:19:56.013Z,10.57
2018-12-30T13:22:25.278Z,13.88
2018-12-30T13:24:54.555Z,10.70
2018-12-30T13:27:23.893Z,12.53
2018-12-30T13:29:53.134Z,8.50
2018-12-30T13:32:22.416Z,11.90
2018-12-30T13:34:51.957Z,16.77
2018-12-30T13:37:21.230Z,11.13
2018-12-30T13:39:50.572Z,14.43
2018-12-30T13:42:19.886Z,14.07
2018-12-30T13:44:49.115Z,11.07
2018-12-30T13:47:18.366Z,12.87
2018-12-30T13:49:47.626Z,12.00
2018-12-30T13:52:16.927Z,6.50
2018-12-30T13:54:47.842Z,8.13
2018-12-30T13:57:17.383Z,9.40
2018-12-30T13:59:46.759Z,7.20
2018-12-30T14:02:16.160Z,11.17
2018-12-30T14:04:45.425Z,9.17
2018-12-30T14:07:14.694Z,11.47
2018-12-30T14:09:44.061Z,9.17
2018-12-30T14:12:13.322Z,8.53
2018-12-30T14:14:42.671Z,9.33
2018-12-30T14:17:11.920Z,14.27
2018-12-30T14:19:41.229Z,11.07
2018-12-30T14:22:10.528Z,11.80
2018-12-30T14:24:39.849Z,13.53
2018-12-30T14:27:09.789Z,10.63
2018-12-30T14:29:39.086Z,9.60
2018-12-30T14:32:08.390Z,15.27
2018-12-30T14:34:37.659Z,15.50
2018-12-30T14:37:06.917Z,10.57
2018-12-30T14:39:36.264Z,16.70
2018-12-30T14:42:05.558Z,13.20
2018-12-30T14:44:34.842Z,13.47
2018-12-30T14:47:04.236Z,18.43
2018-12-30T14:49:33.634Z,12.90
2018-12-30T14:52:02.924Z,15.97
2018-12-30T14:54:32.309Z,12.13
2018-12-30T14:57:01.562Z,17.87
2018-12-30T14:59:30.847Z,12.63
2018-12-30T15:02:00.195Z,16.70
2018-12-30T15:04:29.594Z,17.40
2018-12-30T15:06:58.932Z,18.50
2018-12-30T15:09:35.481Z,23.67
2018-12-30T15:11:59.314Z,20.40
2018-12-30T15:14:28.560Z,14.37
2018-12-30T15:17:00.608Z,18.17
2018-12-30T15:19:29.864Z,13.50
2018-12-30T15:21:59.202Z,20.20
2018-12-30T15:24:28.438Z,13.93
2018-12-30T15:26:57.711Z,16.83
2018-12-30T15:29:27.007Z,11.57
2018-12-30T15:31:56.345Z,17.30
2018-12-30T15:34:26.164Z,21.93
2018-12-30T15:36:55.595Z,13.20
2018-12-30T15:39:24.894Z,17.53
2018-12-30T15:41:54.255Z,17.10
2018-12-30T15:44:23.529Z,17.47
2018-12-30T15:46:52.718Z,12.30
2018-12-30T15:49:22.106Z,15.23
2018-12-30T15:51:51.355Z,13.23
2018-12-30T15:54:20.632Z,18.23
2018-12-30T15:56:49.933Z,18.77
2018-12-30T15:59:19.302Z,14.00
2018-12-30T16:01:48.622Z,15.77
2018-12-30T16:04:17.886Z,14.10
2018-12-30T16:06:47.280Z,19.07
2018-12-30T16:09:16.585Z,11.97
2018-12-30T16:11:45.984Z,14.57
2018-12-30T16:14:16.265Z,19.80
2018-12-30T16:16:45.644Z,14.23
2018-12-30T16:19:15.010Z,22.97
2018-12-30T16:21:44.287Z,15.23
2018-12-30T16:24:13.670Z,16.13
2018-12-30T16:26:42.981Z,17.53
2018-12-30T16:29:12.212Z,22.13
2018-12-30T16:31:41.586Z,19.53
2018-12-30T16:34:10.956Z,20.63
2018-12-30T16:36:40.289Z,14.27
2018-12-30T16:39:09.530Z,18.57
2018-12-30T16:41:39.441Z,16.17
2018-12-30T16:44:08.677Z,14.87
2018-12-30T16:46:38.019Z,17.30
2018-12-30T16:49:07.264Z,18.83
2018-12-30T16:51:36.609Z,19.70
2018-12-30T16:54:05.965Z,23.00
2018-12-30T16:56:35.236Z,21.03
2018-12-30T16:59:04.521Z,26.03
2018-12-30T17:01:33.866Z,19.97
2018-12-30T17:04:03.509Z,24.93
2018-12-30T17:06:34.016Z,23.70
2018-12-30T17:09:04.796Z,25.97
2018-12-30T17:11:34.077Z,18.90
2018-12-30T17:14:03.335Z,15.93
2018-12-30T17:16:32.694Z,24.47
2018-12-30T17:19:02.019Z,12.20
2018-12-30T17:21:31.310Z,17.57
2018-12-30T17:24:00.638Z,21.10
2018-12-30T17:26:30.023Z,17.23
2018-12-30T17:28:59.406Z,22.63
2018-12-30T17:31:28.763Z,20.53
2018-12-30T17:33:58.081Z,23.00
2018-12-30T17:36:27.437Z,22.63
2018-12-30T17:38:56.790Z,16.87
2018-12-30T17:41:26.061Z,19.53
2018-12-30T17:43:55.289Z,18.20
2018-12-30T17:46:24.554Z,24.50
2018-12-30T17:48:53.890Z,24.10
2018-12-30T17:51:23.168Z,21.40
2018-12-30T17:53:52.614Z,23.43
2018-12-30T17:56:21.945Z,26.27
2018-12-30T17:58:51.271Z,18.40
2018-12-30T18:01:20.629Z,19.70
2018-12-30T18:03:49.935Z,16.77
2018-12-30T18:06:19.320Z,24.77
2018-12-30T18:08:48.651Z,20.70
2018-12-30T18:11:18.038Z,20.73
2018-12-30T18:13:47.384Z,23.53
2018-12-30T18:16:16.690Z,18.57
2018-12-30T18:18:46.038Z,26.17
2018-12-30T18:21:15.426Z,21.50
2018-12-30T18:23:44.731Z,20.57
2018-12-30T18:26:14.000Z,17.87
2018-12-30T18:28:43.217Z,20.63
2018-12-30T18:31:12.453Z,24.50
2018-12-30T18:33:41.898Z,23.63
2018-12-30T18:36:11.213Z,29.27
2018-12-30T18:38:40.583Z,36.03
2018-12-30T18:41:09.932Z,31.10
2018-12-30T18:43:39.270Z,35.53
2018-12-30T18:46:08.634Z,26.93
2018-12-30T18:48:37.976Z,19.97
2018-12-30T18:51:07.292Z,27.83
2018-12-30T18:53:36.476Z,24.20
2018-12-30T18:56:06.963Z,22.57
2018-12-30T18:58:36.733Z,24.37
2018-12-30T19:01:06.118Z,25.93
2018-12-30T19:03:35.615Z,25.37
2018-12-30T19:06:04.971Z,21.80
2018-12-30T19:08:34.310Z,17.03
2018-12-30T19:11:04.061Z,23.47
2018-12-30T19:13:33.415Z,16.73
2018-12-30T19:16:02.592Z,15.03
2018-12-30T19:18:31.997Z,27.37
2018-12-30T19:21:01.285Z,29.93
2018-12-30T19:23:30.620Z,17.50
2018-12-30T19:26:01.130Z,18.63
2018-12-30T19:28:30.607Z,27.60
2018-12-30T19:30:59.918Z,22.53
2018-12-30T19:33:29.210Z,19.23
2018-12-30T19:35:58.628Z,22.20
2018-12-30T19:38:30.198Z,26.80
2018-12-30T19:40:59.514Z,25.63
2018-12-30T19:43:29.100Z,25.93
2018-12-30T19:45:58.387Z,24.07
2018-12-30T19:48:27.705Z,25.93
2018-12-30T19:50:57.152Z,25.37
2018-12-30T19:53:26.478Z,25.73
2018-12-30T19:55:55.814Z,32.93
2018-12-30T19:58:25.101Z,23.97
2018-12-30T20:00:54.428Z,18.77
2018-12-30T20:03:23.681Z,24.43
2018-12-30T20:05:52.953Z,21.23
2018-12-30T20:08:22.475Z,17.73
2018-12-30T20:10:51.800Z,18.00
2018-12-30T20:13:21.223Z,29.73
2018-12-30T20:15:50.550Z,22.60
2018-12-30T20:18:19.862Z,23.03
2018-12-30T20:20:49.195Z,25.17
2018-12-30T20:23:18.641Z,17.23
2018-12-30T20:25:47.922Z,21.60
2018-12-30T20:28:17.277Z,26.57
2018-12-30T20:30:46.846Z,17.77
2018-12-30T20:33:16.297Z,22.37
2018-12-30T20:35:45.654Z,27.93
2018-12-30T20:38:14.880Z,29.07
2018-12-30T20:40:44.223Z,18.97
2018-12-30T20:43:13.479Z,20.57
2018-12-30T20:45:45.819Z,27.90
2018-12-30T20:48:15.083Z,23.10
2018-12-30T20:50:44.506Z,24.53
2018-12-30T20:53:14.053Z,18.43
2018-12-30T20:55:43.367Z,17.80
2018-12-30T20:58:12.665Z,14.93
2018-12-30T21:00:41.982Z,19.43
2018-12-30T21:03:11.377Z,21.57
2018-12-30T21:05:40.796Z,24.27
2018-12-30T21:08:10.150Z,16.77
2018-12-30T21:10:39.551Z,23.00
2018-12-30T21:13:08.944Z,20.60
2018-12-30T21:15:38.442Z,17.33
2018-12-30T21:18:07.858Z,26.00
2018-12-30T21:20:37.242Z,14.80
2018-12-30T21:23:06.813Z,17.63
2018-12-30T21:25:36.378Z,20.60
2018-12-30T21:28:05.845Z,19.23
2018-12-30T21:30:35.417Z,20.67
2018-12-30T21:33:04.734Z,18.67
2018-12-30T21:35:34.508Z,16.47
2018-12-30T21:38:03.830Z,19.20
2018-12-30T21:40:33.123Z,21.13
2018-12-30T21:43:02.953Z,21.63
2018-12-30T21:45:32.427Z,21.00
2018-12-30T21:48:03.294Z,17.83
2018-12-30T21:50:32.987Z,21.37
2018-12-30T21:53:02.419Z,20.10
2018-12-30T21:55:31.694Z,19.97
2018-12-30T21:58:01.238Z,24.37
2018-12-30T22:00:30.546Z,22.83
2018-12-30T22:02:59.922Z,22.87
2018-12-30T22:05:29.303Z,21.37
2018-12-30T22:07:58.594Z,21.13
2018-12-30T22:10:28.065Z,27.50
2018-12-30T22:12:57.578Z,26.97
2018-12-30T22:15:27.002Z,26.87
2018-12-30T22:17:56.439Z,32.40
2018-12-30T22:20:25.746Z,20.63
2018-12-30T22:22:55.305Z,23.10
2018-12-30T22:25:24.651Z,25.77
2018-12-30T22:27:54.111Z,25.13
2018-12-30T22:30:24.652Z,20.60
2018-12-30T22:32:54.107Z,19.07
2018-12-30T22:35:23.523Z,23.07
2018-12-30T22:37:53.026Z,24.13
2018-12-30T22:40:22.400Z,25.13
2018-12-30T22:42:51.780Z,27.47
2018-12-30T22:45:21.239Z,25.83
2018-12-30T22:47:50.495Z,24.67
2018-12-30T22:50:19.899Z,26.53
2018-12-30T22:52:49.178Z,13.20
2018-12-30T22:55:18.549Z,19.97
2018-12-30T22:57:51.073Z,24.60
2018-12-30T23:00:25.992Z,17.17
2018-12-30T23:02:55.632Z,15.17
2018-12-30T23:05:24.976Z,17.93
2018-12-30T23:07:54.529Z,14.93
2018-12-30T23:10:24.120Z,20.37
2018-12-30T23:12:53.481Z,20.27
2018-12-30T23:15:22.874Z,13.27
2018-12-30T23:17:52.535Z,18.37
2018-12-30T23:20:21.886Z,23.97
2018-12-30T23:22:51.293Z,15.20
2018-12-30T23:25:20.640Z,23.53
2018-12-30T23:27:50.089Z,18.77
2018-12-30T23:30:19.417Z,14.20
2018-12-30T23:32:48.727Z,16.80
2018-12-30T23:35:18.078Z,15.97
2018-12-30T23:37:47.333Z,18.23
2018-12-30T23:40:16.738Z,19.40
2018-12-30T23:42:46.123Z,15.10
2018-12-30T23:45:15.498Z,22.57
2018-12-30T23:47:44.777Z,14.47
2018-12-30T23:50:14.234Z,11.97
2018-12-30T23:52:43.620Z,19.83
2018-12-30T23:55:12.926Z,25.33
2018-12-30T23:57:42.262Z,16.47
